createdAt,value
2022-11-05T00:00:15.916Z,13.25
2022-11-05T00:02:42.417Z,13.98
2022-11-05T00:05:11.495Z,15.55
2022-11-05T00:07:49.464Z,12.07
2022-11-05T00:10:22.718Z,15.30
2022-11-05T00:12:49.320Z,15.85
2022-11-05T00:15:15.903Z,14.15
2022-11-05T00:17:42.928Z,12.98
2022-11-05T00:20:10.750Z,13.98
2022-11-05T00:22:37.222Z,17.45
2022-11-05T00:25:03.964Z,15.00
2022-11-05T00:27:33.149Z,16.55
2022-11-05T00:29:59.656Z,17.52
2022-11-05T00:32:26.185Z,24.65
2022-11-05T00:34:52.624Z,17.55
2022-11-05T00:37:19.084Z,20.50
2022-11-05T00:39:45.523Z,22.08
2022-11-05T00:42:12.024Z,16.38
2022-11-05T00:44:38.525Z,14.27
2022-11-05T00:47:04.987Z,18.30
2022-11-05T00:49:31.437Z,20.38
2022-11-05T00:51:57.882Z,16.77
2022-11-05T00:54:24.394Z,16.50
2022-11-05T00:56:50.904Z,16.65
2022-11-05T00:59:17.308Z,16.55
2022-11-05T01:01:43.945Z,14.95
2022-11-05T01:04:10.614Z,16.90
2022-11-05T01:06:37.086Z,17.20
2022-11-05T01:09:03.578Z,16.10
2022-11-05T01:11:30.070Z,18.35
2022-11-05T01:13:56.537Z,13.25
2022-11-05T01:16:24.201Z,14.27
2022-11-05T01:18:50.699Z,15.07
2022-11-05T01:21:17.241Z,20.45
2022-11-05T01:23:43.754Z,23.42
2022-11-05T01:26:10.494Z,16.23
2022-11-05T01:28:37.082Z,14.68
2022-11-05T01:31:03.791Z,17.40
2022-11-05T01:33:30.282Z,17.75
2022-11-05T01:35:56.741Z,16.83
2022-11-05T01:38:23.672Z,20.95
2022-11-05T01:40:50.279Z,19.20
2022-11-05T01:43:22.402Z,13.23
2022-11-05T01:45:57.303Z,14.60
2022-11-05T01:48:28.346Z,14.55
2022-11-05T01:51:01.250Z,14.50
2022-11-05T01:53:38.703Z,13.80
2022-11-05T01:56:13.578Z,18.83
2022-11-05T01:58:47.523Z,17.67
2022-11-05T02:01:14.664Z,18.02
2022-11-05T02:03:42.822Z,11.85
2022-11-05T02:06:10.319Z,14.20
2022-11-05T02:08:46.064Z,14.18
2022-11-05T02:11:16.533Z,16.30
2022-11-05T02:13:43.086Z,16.92
2022-11-05T02:16:29.729Z,10.88
2022-11-05T02:19:19.093Z,13.45
2022-11-05T02:22:19.887Z,15.35
2022-11-05T02:25:43.480Z,13.07
2022-11-05T02:28:43.417Z,16.15
2022-11-05T02:31:44.882Z,12.27
2022-11-05T02:34:23.268Z,14.52
2022-11-05T02:37:01.918Z,11.38
2022-11-05T02:39:50.878Z,13.82
2022-11-05T02:42:26.440Z,14.15
2022-11-05T02:45:14.841Z,15.07
2022-11-05T02:47:45.227Z,13.77
2022-11-05T02:50:35.291Z,13.05
2022-11-05T02:53:06.117Z,10.88
2022-11-05T02:55:41.735Z,9.65
2022-11-05T02:58:09.065Z,18.40
2022-11-05T03:00:41.012Z,12.10
2022-11-05T03:03:36.470Z,8.93
2022-11-05T03:06:21.627Z,13.15
2022-11-05T03:09:00.048Z,17.80
2022-11-05T03:11:30.536Z,13.50
2022-11-05T03:13:59.945Z,15.25
2022-11-05T03:16:40.468Z,14.02
2022-11-05T03:19:10.625Z,15.20
2022-11-05T03:22:11.113Z,9.57
2022-11-05T03:24:44.821Z,12.43
2022-11-05T03:27:18.413Z,13.10
2022-11-05T03:29:51.137Z,12.25
2022-11-05T03:32:20.398Z,15.35
2022-11-05T03:34:51.541Z,13.35
2022-11-05T03:37:23.097Z,14.10
2022-11-05T03:39:58.536Z,12.18
2022-11-05T03:42:29.064Z,10.82
2022-11-05T03:44:59.556Z,12.40
2022-11-05T03:47:32.537Z,16.38
2022-11-05T03:50:10.058Z,12.45
2022-11-05T03:52:45.769Z,11.48
2022-11-05T03:55:12.675Z,8.65
2022-11-05T03:57:44.020Z,10.23
2022-11-05T04:00:11.368Z,13.20
2022-11-05T04:02:41.643Z,12.30
2022-11-05T04:05:08.262Z,10.38
2022-11-05T04:07:34.711Z,10.27
2022-11-05T04:10:01.240Z,11.15
2022-11-05T04:12:27.715Z,13.95
2022-11-05T04:14:54.283Z,14.57
2022-11-05T04:17:20.734Z,12.05
2022-11-05T04:19:47.309Z,11.77
2022-11-05T04:22:13.755Z,11.15
2022-11-05T04:24:40.288Z,9.43
2022-11-05T04:27:06.740Z,7.82
2022-11-05T04:29:33.213Z,12.13
2022-11-05T04:31:59.686Z,13.18
2022-11-05T04:34:26.190Z,11.32
2022-11-05T04:36:53.225Z,9.65
2022-11-05T04:39:21.286Z,11.25
2022-11-05T04:41:48.126Z,11.70
2022-11-05T04:44:15.567Z,9.48
2022-11-05T04:46:42.316Z,10.85
2022-11-05T04:49:08.796Z,12.48
2022-11-05T04:51:35.285Z,11.27
2022-11-05T04:54:01.714Z,11.23
2022-11-05T04:56:28.220Z,8.85
2022-11-05T04:58:54.693Z,8.63
2022-11-05T05:01:23.416Z,9.95
2022-11-05T05:03:51.561Z,12.25
2022-11-05T05:06:18.601Z,9.23
2022-11-05T05:08:47.073Z,8.95
2022-11-05T05:11:16.593Z,11.98
2022-11-05T05:13:43.364Z,8.15
2022-11-05T05:16:18.209Z,9.82
2022-11-05T05:18:46.349Z,7.80
2022-11-05T05:21:13.657Z,10.68
2022-11-05T05:23:40.110Z,12.15
2022-11-05T05:26:06.592Z,14.38
2022-11-05T05:28:33.411Z,10.45
2022-11-05T05:31:00.655Z,12.45
2022-11-05T05:33:28.215Z,9.23
2022-11-05T05:35:57.625Z,11.43
2022-11-05T05:38:24.733Z,14.40
2022-11-05T05:40:51.756Z,10.18
2022-11-05T05:43:18.274Z,10.07
2022-11-05T05:45:44.783Z,9.40
2022-11-05T05:48:11.354Z,10.95
2022-11-05T05:50:37.864Z,11.68
2022-11-05T05:53:07.816Z,11.30
2022-11-05T05:55:34.488Z,13.65
2022-11-05T05:58:00.932Z,12.05
2022-11-05T06:00:27.432Z,8.70
2022-11-05T06:02:55.717Z,13.48
2022-11-05T06:05:22.404Z,14.45
2022-11-05T06:07:55.933Z,13.73
2022-11-05T06:10:22.774Z,10.57
2022-11-05T06:12:49.231Z,13.88
2022-11-05T06:15:16.089Z,13.05
2022-11-05T06:17:45.931Z,12.30
2022-11-05T06:20:13.125Z,12.55
2022-11-05T06:22:39.671Z,9.88
2022-11-05T06:25:07.305Z,15.45
2022-11-05T06:27:34.358Z,10.98
2022-11-05T06:30:00.843Z,11.65
2022-11-05T06:32:27.292Z,13.23
2022-11-05T06:34:53.788Z,16.77
2022-11-05T06:37:20.257Z,18.70
2022-11-05T06:39:46.744Z,16.13
2022-11-05T06:42:20.286Z,11.20
2022-11-05T06:44:46.789Z,17.63
2022-11-05T06:47:13.231Z,11.48
2022-11-05T06:49:39.723Z,15.75
2022-11-05T06:52:06.292Z,15.32
2022-11-05T06:54:32.781Z,14.65
2022-11-05T06:56:59.249Z,11.45
2022-11-05T06:59:25.762Z,11.18
2022-11-05T07:01:52.317Z,11.85
2022-11-05T07:04:18.823Z,11.98
2022-11-05T07:06:45.252Z,17.15
2022-11-05T07:09:11.782Z,14.02
2022-11-05T07:11:38.224Z,16.67
2022-11-05T07:14:04.750Z,13.88
2022-11-05T07:16:31.233Z,17.75
2022-11-05T07:18:57.690Z,14.07
2022-11-05T07:21:24.236Z,10.85
2022-11-05T07:23:50.838Z,19.92
2022-11-05T07:26:17.338Z,13.65
2022-11-05T07:28:43.825Z,16.67
2022-11-05T07:31:10.281Z,13.43
2022-11-05T07:33:36.963Z,13.93
2022-11-05T07:36:03.711Z,13.32
2022-11-05T07:38:30.642Z,9.35
2022-11-05T07:40:59.468Z,12.98
2022-11-05T07:43:25.977Z,15.32
2022-11-05T07:45:52.518Z,11.18
2022-11-05T07:48:19.027Z,10.10
2022-11-05T07:50:45.587Z,15.20
2022-11-05T07:53:14.483Z,15.90
2022-11-05T07:55:42.009Z,11.13
2022-11-05T07:58:09.700Z,17.60
2022-11-05T08:00:36.762Z,10.57
2022-11-05T08:03:08.176Z,13.07
2022-11-05T08:05:42.514Z,12.40
2022-11-05T08:10:37.041Z,17.05
2022-11-05T08:13:04.881Z,16.98
2022-11-05T08:15:31.527Z,13.63
2022-11-05T08:18:02.740Z,14.77
2022-11-05T08:20:29.393Z,8.77
2022-11-05T08:22:56.361Z,12.05
2022-11-05T08:25:23.525Z,12.55
2022-11-05T08:27:58.633Z,13.15
2022-11-05T08:30:25.729Z,13.15
2022-11-05T08:32:57.015Z,10.43
2022-11-05T08:35:23.739Z,9.88
2022-11-05T08:37:50.233Z,12.43
2022-11-05T08:40:16.854Z,10.48
2022-11-05T08:42:43.366Z,12.48
2022-11-05T08:45:10.144Z,15.88
2022-11-05T08:47:36.659Z,11.90
2022-11-05T08:50:03.316Z,13.02
2022-11-05T08:52:29.843Z,10.35
2022-11-05T08:54:56.474Z,11.70
2022-11-05T08:57:22.993Z,13.57
2022-11-05T08:59:49.537Z,12.55
2022-11-05T09:02:16.146Z,10.63
2022-11-05T09:04:42.698Z,12.50
2022-11-05T09:07:09.126Z,9.23
2022-11-05T09:09:35.606Z,9.98
2022-11-05T09:12:17.407Z,15.50
2022-11-05T09:14:44.003Z,13.15
2022-11-05T09:17:21.565Z,10.65
2022-11-05T09:19:48.516Z,10.70
2022-11-05T09:22:15.212Z,11.57
2022-11-05T09:24:43.209Z,10.05
2022-11-05T09:27:11.327Z,12.82
2022-11-05T09:29:38.057Z,12.80
2022-11-05T09:32:07.331Z,11.73
2022-11-05T09:34:34.806Z,12.15
2022-11-05T09:37:02.202Z,11.15
2022-11-05T09:39:29.027Z,9.70
2022-11-05T09:42:02.121Z,13.43
2022-11-05T09:44:40.661Z,10.70
2022-11-05T09:47:13.166Z,10.10
2022-11-05T09:49:44.276Z,11.55
2022-11-05T09:52:21.233Z,10.32
2022-11-05T09:54:47.943Z,12.55
2022-11-05T09:57:20.996Z,16.75
2022-11-05T10:00:08.571Z,14.65
2022-11-05T10:02:42.038Z,10.68
2022-11-05T10:05:12.161Z,12.80
2022-11-05T10:07:49.116Z,8.75
2022-11-05T10:10:24.301Z,17.63
2022-11-05T10:12:55.068Z,15.85
2022-11-05T10:15:36.332Z,8.43
2022-11-05T10:18:12.396Z,10.60
2022-11-05T10:20:39.348Z,13.70
2022-11-05T10:23:18.182Z,7.80
2022-11-05T10:25:55.005Z,15.57
2022-11-05T10:28:24.305Z,11.32
2022-11-05T10:30:56.348Z,12.48
2022-11-05T10:33:48.512Z,7.93
2022-11-05T10:36:27.705Z,12.20
2022-11-05T10:39:00.391Z,8.07
2022-11-05T10:41:53.647Z,15.23
2022-11-05T10:45:02.233Z,10.95
2022-11-05T10:47:53.252Z,7.60
2022-11-05T10:50:24.470Z,7.30
2022-11-05T10:53:01.176Z,9.88
2022-11-05T10:55:35.128Z,8.90
2022-11-05T10:58:16.731Z,10.07
2022-11-05T11:00:45.591Z,13.70
2022-11-05T11:03:45.848Z,7.57
2022-11-05T11:06:33.204Z,11.50
2022-11-05T11:09:06.367Z,8.13
2022-11-05T11:11:37.685Z,6.55
2022-11-05T11:14:19.998Z,6.22
2022-11-05T11:16:51.446Z,7.55
2022-11-05T11:22:07.194Z,7.20
2022-11-05T11:24:45.399Z,7.88
2022-11-05T11:27:16.648Z,8.85
2022-11-05T11:29:49.610Z,7.85
2022-11-05T11:32:19.260Z,6.60
2022-11-05T11:34:52.960Z,5.53
2022-11-05T11:37:28.904Z,5.30
2022-11-05T11:40:21.992Z,5.53
2022-11-05T11:42:56.267Z,5.03
2022-11-05T11:45:33.122Z,9.13
2022-11-05T11:48:04.501Z,6.82
2022-11-05T11:50:38.593Z,6.50
2022-11-05T11:53:20.264Z,4.88
2022-11-05T11:58:45.976Z,5.00
2022-11-05T12:01:37.580Z,7.10
2022-11-05T12:04:10.056Z,8.25
2022-11-05T12:07:07.333Z,5.60
2022-11-05T12:09:49.914Z,5.05
2022-11-05T12:12:20.888Z,6.43
2022-11-05T12:15:03.532Z,8.23
2022-11-05T12:17:44.949Z,4.78
2022-11-05T12:20:16.782Z,7.88
2022-11-05T12:22:51.862Z,9.35
2022-11-05T12:25:25.216Z,7.88
2022-11-05T12:28:17.046Z,5.78
2022-11-05T12:33:38.329Z,5.38
2022-11-05T12:36:21.200Z,8.43
2022-11-05T12:39:13.286Z,9.32
2022-11-05T12:42:15.269Z,8.82
2022-11-05T12:45:20.886Z,10.07
2022-11-05T12:48:24.701Z,10.05
2022-11-05T12:51:08.342Z,13.25
2022-11-05T12:54:07.351Z,6.60
2022-11-05T12:56:57.168Z,10.48
2022-11-05T12:59:39.700Z,6.45
2022-11-05T13:02:19.483Z,10.55
2022-11-05T13:04:57.794Z,12.55
2022-11-05T13:07:30.200Z,9.77
2022-11-05T13:10:03.187Z,12.60
2022-11-05T13:12:33.206Z,8.77
2022-11-05T13:15:05.286Z,9.63
2022-11-05T13:17:48.985Z,11.60
2022-11-05T13:20:21.322Z,7.45
2022-11-05T13:23:06.339Z,11.30
2022-11-05T13:25:37.619Z,10.15
2022-11-05T13:28:38.352Z,7.78
2022-11-05T13:31:09.870Z,6.88
2022-11-05T13:36:32.382Z,11.13
2022-11-05T13:39:17.834Z,8.23
2022-11-05T13:42:11.945Z,9.77
2022-11-05T13:44:50.655Z,7.20
2022-11-05T13:47:35.982Z,6.45
2022-11-05T13:50:30.430Z,7.70
2022-11-05T13:53:38.614Z,8.80
2022-11-05T13:56:05.096Z,11.20
2022-11-05T13:58:49.803Z,8.77
2022-11-05T14:01:35.012Z,8.77
2022-11-05T14:04:02.976Z,7.97
2022-11-05T14:06:36.144Z,11.55
2022-11-05T14:09:08.630Z,10.05
2022-11-05T14:11:38.293Z,11.70
2022-11-05T14:14:08.704Z,10.93
2022-11-05T14:17:14.848Z,12.48
2022-11-05T14:20:23.514Z,8.57
2022-11-05T14:22:50.204Z,13.38
2022-11-05T14:25:39.658Z,7.45
2022-11-05T14:28:35.210Z,12.48
2022-11-05T14:34:43.039Z,12.30
2022-11-05T14:37:12.660Z,8.32
2022-11-05T14:39:40.865Z,7.43
2022-11-05T14:42:14.837Z,13.25
2022-11-05T14:44:56.649Z,9.00
2022-11-05T14:47:26.091Z,11.23
2022-11-05T14:49:58.603Z,9.20
2022-11-05T14:52:25.146Z,8.05
2022-11-05T14:54:54.946Z,9.45
2022-11-05T14:57:43.190Z,10.80
2022-11-05T15:00:28.470Z,6.15
2022-11-05T15:03:00.813Z,12.77
2022-11-05T15:05:48.607Z,10.00
2022-11-05T15:08:47.487Z,13.45
2022-11-05T15:11:21.687Z,11.07
2022-11-05T15:13:54.259Z,6.95
2022-11-05T15:16:36.697Z,9.10
2022-11-05T15:19:05.050Z,9.75
2022-11-05T15:21:35.903Z,8.23
2022-11-05T15:24:03.873Z,8.40
2022-11-05T15:26:47.376Z,10.52
2022-11-05T15:29:20.395Z,6.72
2022-11-05T15:31:47.391Z,10.38
2022-11-05T15:34:16.843Z,7.45
2022-11-05T15:36:55.396Z,9.93
2022-11-05T15:39:38.580Z,7.85
2022-11-05T15:42:11.983Z,12.23
2022-11-05T15:44:41.044Z,13.85
2022-11-05T15:47:11.111Z,8.20
2022-11-05T15:49:38.025Z,6.65
2022-11-05T15:52:04.714Z,7.90
2022-11-05T15:54:31.761Z,9.23
2022-11-05T15:56:59.652Z,7.07
2022-11-05T15:59:29.300Z,9.48
2022-11-05T16:02:20.538Z,10.43
2022-11-05T16:04:48.296Z,8.02
2022-11-05T16:07:15.965Z,10.85
2022-11-05T16:09:51.962Z,10.98
2022-11-05T16:12:18.476Z,14.73
2022-11-05T16:14:58.377Z,10.68
2022-11-05T16:17:27.966Z,8.23
2022-11-05T16:19:54.828Z,12.50
2022-11-05T16:22:22.106Z,8.73
2022-11-05T16:24:49.339Z,8.43
2022-11-05T16:27:21.898Z,12.25
2022-11-05T16:29:51.627Z,12.40
2022-11-05T16:32:26.915Z,16.40
2022-11-05T16:35:03.203Z,12.57
2022-11-05T16:37:36.450Z,12.02
2022-11-05T16:40:09.634Z,11.00
2022-11-05T16:42:38.871Z,15.07
2022-11-05T16:45:07.149Z,10.50
2022-11-05T16:47:33.858Z,14.02
2022-11-05T16:50:00.480Z,10.05
2022-11-05T16:52:29.907Z,15.63
2022-11-05T16:54:56.402Z,12.45
2022-11-05T16:57:29.078Z,10.75
2022-11-05T16:59:56.156Z,10.05
2022-11-05T17:02:23.125Z,13.25
2022-11-05T17:04:49.972Z,11.23
2022-11-05T17:07:16.582Z,10.25
2022-11-05T17:09:43.196Z,11.82
2022-11-05T17:12:11.522Z,18.20
2022-11-05T17:14:38.440Z,12.80
2022-11-05T17:17:05.574Z,12.82
2022-11-05T17:19:32.230Z,11.60
2022-11-05T17:21:58.815Z,13.52
2022-11-05T17:24:25.324Z,10.02
2022-11-05T17:26:51.854Z,12.38
2022-11-05T17:29:18.324Z,12.23
2022-11-05T17:31:44.795Z,8.45
2022-11-05T17:34:11.355Z,10.85
2022-11-05T17:36:37.843Z,10.15
2022-11-05T17:39:04.307Z,10.95
2022-11-05T17:41:30.829Z,12.07
2022-11-05T17:43:57.726Z,7.90
2022-11-05T17:46:24.577Z,9.75
2022-11-05T17:48:51.069Z,11.90
2022-11-05T17:51:19.311Z,9.82
2022-11-05T17:53:47.033Z,13.23
2022-11-05T17:56:24.572Z,8.77
2022-11-05T17:58:55.904Z,9.48
2022-11-05T18:01:34.320Z,13.60
2022-11-05T18:04:07.157Z,11.80
2022-11-05T18:06:36.599Z,12.30
2022-11-05T18:09:04.621Z,8.57
2022-11-05T18:11:32.208Z,7.20
2022-11-05T18:13:58.774Z,8.05
2022-11-05T18:16:25.364Z,7.13
2022-11-05T18:18:51.938Z,6.75
2022-11-05T18:21:18.644Z,9.50
2022-11-05T18:23:45.292Z,7.70
2022-11-05T18:26:14.033Z,8.45
2022-11-05T18:28:40.895Z,9.85
2022-11-05T18:31:19.024Z,9.40
2022-11-05T18:33:45.946Z,10.23
2022-11-05T18:36:20.156Z,7.75
2022-11-05T18:38:47.947Z,8.98
2022-11-05T18:41:15.100Z,6.88
2022-11-05T18:43:41.627Z,7.55
2022-11-05T18:46:08.162Z,9.23
2022-11-05T18:48:35.303Z,10.13
2022-11-05T18:51:15.658Z,10.35
2022-11-05T18:53:42.473Z,11.25
2022-11-05T18:56:15.254Z,8.90
2022-11-05T18:58:41.908Z,9.00
2022-11-05T19:01:16.935Z,12.15
2022-11-05T19:03:44.035Z,12.55
2022-11-05T19:06:11.180Z,12.48
2022-11-05T19:08:37.775Z,12.60
2022-11-05T19:11:14.170Z,8.57
2022-11-05T19:13:40.837Z,8.30
2022-11-05T19:16:14.123Z,7.05
2022-11-05T19:18:41.449Z,11.05
2022-11-05T19:21:09.724Z,8.52
2022-11-05T19:23:36.473Z,7.47
2022-11-05T19:26:07.299Z,9.30
2022-11-05T19:28:34.411Z,7.75
2022-11-05T19:31:01.075Z,11.48
2022-11-05T19:33:28.034Z,11.35
2022-11-05T19:35:55.174Z,12.57
2022-11-05T19:38:22.724Z,19.58
2022-11-05T19:40:49.861Z,22.05
2022-11-05T19:43:16.402Z,23.50
2022-11-05T19:45:45.243Z,30.05
2022-11-05T19:48:17.846Z,32.10
2022-11-05T19:50:45.873Z,24.70
2022-11-05T19:53:12.504Z,24.40
2022-11-05T19:55:40.691Z,23.08
2022-11-05T19:58:08.192Z,19.35
2022-11-05T20:00:34.717Z,17.67
2022-11-05T20:03:01.480Z,16.40
2022-11-05T20:05:28.072Z,12.13
2022-11-05T20:07:55.360Z,11.57
2022-11-05T20:10:21.860Z,11.20
2022-11-05T20:12:48.336Z,11.07
2022-11-05T20:15:14.960Z,11.55
2022-11-05T20:17:41.450Z,11.75
2022-11-05T20:20:08.444Z,14.00
2022-11-05T20:22:34.929Z,12.95
2022-11-05T20:25:01.400Z,13.45
2022-11-05T20:27:28.870Z,15.32
2022-11-05T20:29:55.429Z,14.23
2022-11-05T20:32:21.892Z,14.20
2022-11-05T20:34:48.401Z,21.73
2022-11-05T20:37:15.007Z,16.70
2022-11-05T20:39:41.491Z,15.77
2022-11-05T20:42:07.951Z,16.58
2022-11-05T20:44:34.425Z,16.00
2022-11-05T20:47:00.935Z,14.50
2022-11-05T20:49:27.428Z,17.27
2022-11-05T20:51:54.653Z,18.95
2022-11-05T20:54:21.200Z,20.88
2022-11-05T20:56:47.724Z,21.75
2022-11-05T20:59:14.263Z,23.65
2022-11-05T21:01:40.895Z,25.95
2022-11-05T21:04:07.558Z,28.63
2022-11-05T21:06:34.173Z,29.80
2022-11-05T21:09:00.945Z,37.78
2022-11-05T21:11:28.021Z,41.72
2022-11-05T21:13:54.598Z,47.33
2022-11-05T21:16:21.593Z,42.67
2022-11-05T21:18:48.133Z,31.90
2022-11-05T21:21:19.565Z,30.17
2022-11-05T21:26:14.223Z,33.35
2022-11-05T21:28:41.759Z,34.88
2022-11-05T21:31:09.051Z,38.10
2022-11-05T21:33:35.761Z,29.40
2022-11-05T21:36:15.556Z,30.77
2022-11-05T21:38:42.280Z,33.03
2022-11-05T21:41:11.164Z,33.35
2022-11-05T21:43:38.744Z,41.50
2022-11-05T21:46:05.301Z,43.17
2022-11-05T21:48:32.288Z,51.65
2022-11-05T21:50:58.925Z,43.83
2022-11-05T21:53:25.945Z,55.03
2022-11-05T21:55:52.428Z,53.40
2022-11-05T21:58:19.235Z,54.13
2022-11-05T22:00:45.657Z,51.13
2022-11-05T22:03:12.151Z,49.13
2022-11-05T22:05:38.659Z,40.47
2022-11-05T22:08:05.317Z,40.47
2022-11-05T22:10:31.836Z,38.88
2022-11-05T22:12:58.316Z,37.63
2022-11-05T22:15:24.792Z,33.83
2022-11-05T22:17:51.325Z,41.05
2022-11-05T22:20:17.819Z,38.10
2022-11-05T22:22:45.053Z,34.72
2022-11-05T22:25:12.004Z,39.05
2022-11-05T22:27:38.485Z,38.80
2022-11-05T22:30:05.464Z,37.35
2022-11-05T22:32:32.017Z,33.97
2022-11-05T22:34:58.647Z,34.78
2022-11-05T22:37:25.086Z,35.80
2022-11-05T22:39:51.579Z,33.08
2022-11-05T22:42:18.147Z,29.30
2022-11-05T22:44:44.668Z,34.53
2022-11-05T22:47:11.232Z,35.63
2022-11-05T22:49:37.863Z,33.67
2022-11-05T22:52:04.634Z,36.35
2022-11-05T22:54:36.422Z,39.38
2022-11-05T22:57:05.462Z,37.58
2022-11-05T22:59:31.912Z,36.78
2022-11-05T23:01:58.613Z,36.83
2022-11-05T23:04:25.093Z,36.13
2022-11-05T23:06:51.642Z,33.85
2022-11-05T23:09:22.672Z,35.75
2022-11-05T23:11:51.646Z,33.22
2022-11-05T23:14:18.214Z,32.60
2022-11-05T23:16:44.916Z,28.30
2022-11-05T23:19:12.026Z,31.77
2022-11-05T23:21:38.463Z,29.55
2022-11-05T23:24:05.393Z,28.15
2022-11-05T23:26:36.819Z,21.52
2022-11-05T23:29:03.351Z,27.33
2022-11-05T23:31:30.020Z,20.40
2022-11-05T23:33:56.776Z,28.27
2022-11-05T23:36:23.209Z,27.10
2022-11-05T23:38:49.652Z,24.58
2022-11-05T23:41:16.121Z,28.73
2022-11-05T23:43:42.590Z,29.48
2022-11-05T23:46:09.049Z,27.38
2022-11-05T23:48:37.372Z,33.22
2022-11-05T23:51:09.767Z,32.03
2022-11-05T23:53:38.365Z,31.52
2022-11-05T23:56:08.200Z,31.05
2022-11-05T23:58:36.212Z,32.47
